Time;durP1;ratioP1;P1;durP2;ratioP2;P2;SDS_P1;SDS_P2;PMS_P1;PMS_P2;Temp;Humidity;BMP_temperature;BMP_pressure;BME280_temperature;BME280_humidity;BME280_pressure;Samples;Min_cycle;Max_cycle;Signal;HPM_P1;HPM_P2
2022/08/08 00:00:21;;;;;;;8.35;4.70;;;13.00;99.90;;;;;;5052887;28;20311;-71
2022/08/08 00:03:32;;;;;;;6.07;3.72;;;12.90;99.90;;;;;;5017065;28;20053;-71
2022/08/08 00:06:08;;;;;;;4.25;3.30;;;12.80;99.90;;;;;;4974310;28;20054;-72
2022/08/08 00:09:00;;;;;;;6.85;3.50;;;12.80;99.90;;;;;;4978822;28;20050;-71
2022/08/08 00:11:36;;;;;;;6.70;3.92;;;12.80;99.90;;;;;;5036822;28;20499;-72
2022/08/08 00:14:06;;;;;;;7.32;4.10;;;12.70;99.90;;;;;;5032822;28;20084;-71
2022/08/08 00:16:45;;;;;;;7.85;4.13;;;12.80;99.90;;;;;;5027879;28;20049;-72
2022/08/08 00:19:32;;;;;;;5.65;4.50;;;12.80;99.90;;;;;;5030561;28;20152;-72
2022/08/08 00:22:31;;;;;;;6.97;4.88;;;12.80;99.90;;;;;;5034644;28;20061;-72
2022/08/08 00:25:07;;;;;;;6.13;4.35;;;12.80;99.90;;;;;;5028124;28;20517;-72
2022/08/08 00:27:36;;;;;;;7.00;4.95;;;12.80;99.90;;;;;;5024065;28;20072;-72
2022/08/08 00:30:05;;;;;;;8.02;5.30;;;12.80;99.90;;;;;;5048069;28;20122;-72
2022/08/08 00:32:52;;;;;;;10.23;5.85;;;12.80;99.90;;;;;;5043595;28;20048;-72
2022/08/08 00:35:45;;;;;;;9.93;6.05;;;12.90;99.90;;;;;;5051328;28;20420;-71
2022/08/08 00:38:11;;;;;;;7.82;5.47;;;12.90;99.90;;;;;;5035672;28;20057;-72
2022/08/08 00:41:05;;;;;;;9.23;5.45;;;12.90;99.90;;;;;;5050703;28;20496;-72
2022/08/08 00:43:56;;;;;;;10.35;6.10;;;12.90;99.90;;;;;;5041017;28;20114;-72
2022/08/08 00:46:39;;;;;;;8.98;5.38;;;12.90;99.90;;;;;;5039240;28;20075;-73
2022/08/08 00:49:33;;;;;;;7.70;5.50;;;12.90;99.90;;;;;;5035728;28;20068;-72
2022/08/08 00:52:24;;;;;;;8.60;4.93;;;12.80;99.90;;;;;;5036420;28;20508;-72
2022/08/08 00:55:31;;;;;;;10.88;5.15;;;12.80;99.90;;;;;;5051189;28;20049;-72
2022/08/08 00:58:32;;;;;;;5.60;4.80;;;12.70;99.90;;;;;;5034220;28;20048;-72
2022/08/08 01:01:05;;;;;;;7.93;4.00;;;12.60;99.90;;;;;;5032668;28;20064;-72
2022/08/08 01:03:33;;;;;;;7.95;4.80;;;12.60;99.90;;;;;;5030898;28;20045;-71
2022/08/08 01:06:17;;;;;;;5.20;4.50;;;12.60;99.90;;;;;;5030262;28;20179;-72
2022/08/08 01:09:21;;;;;;;6.72;4.65;;;12.60;99.90;;;;;;5041397;28;20499;-71
2022/08/08 01:12:24;;;;;;;7.35;4.35;;;12.60;99.90;;;;;;5049359;28;20493;-71
2022/08/08 01:15:14;;;;;;;6.68;4.15;;;12.50;99.90;;;;;;5038447;28;20565;-72
2022/08/08 01:18:05;;;;;;;5.70;4.72;;;12.50;99.90;;;;;;5022812;28;20514;-72
2022/08/08 01:20:52;;;;;;;8.40;4.90;;;12.50;99.90;;;;;;5048965;28;20821;-72
2022/08/08 01:23:42;;;;;;;8.50;5.30;;;12.50;99.90;;;;;;5045796;28;20045;-72
2022/08/08 01:26:46;;;;;;;8.40;5.18;;;12.40;99.90;;;;;;5036336;28;20060;-73
2022/08/08 01:29:20;;;;;;;8.35;5.40;;;12.40;99.90;;;;;;5039368;28;20381;-72
2022/08/08 01:32:20;;;;;;;10.38;5.53;;;12.50;99.90;;;;;;5050105;28;20065;-71
2022/08/08 01:35:07;;;;;;;11.02;5.75;;;12.50;99.90;;;;;;5050555;28;20048;-71
2022/08/08 01:38:07;;;;;;;9.02;5.70;;;12.50;99.90;;;;;;5031889;28;20053;-71
2022/08/08 01:40:42;;;;;;;6.63;5.55;;;12.40;99.90;;;;;;5042917;28;20156;-72
2022/08/08 01:43:30;;;;;;;10.38;6.10;;;12.40;99.90;;;;;;5036030;28;20072;-71
2022/08/08 01:46:12;;;;;;;9.30;5.97;;;12.40;99.90;;;;;;5050789;28;20056;-72
2022/08/08 01:49:17;;;;;;;9.93;5.05;;;12.40;99.90;;;;;;5042313;28;20131;-72
2022/08/08 01:51:57;;;;;;;9.25;6.80;;;12.40;99.90;;;;;;5039152;28;20049;-72
2022/08/08 01:55:00;;;;;;;10.93;6.88;;;12.40;99.90;;;;;;5050187;28;20084;-72
2022/08/08 01:57:32;;;;;;;8.77;6.50;;;12.50;99.90;;;;;;5034385;28;20118;-72
2022/08/08 02:00:21;;;;;;;11.93;6.80;;;12.50;99.90;;;;;;5051155;28;20063;-72
2022/08/08 02:03:34;;;;;;;10.40;7.20;;;12.60;99.90;;;;;;5029474;28;20057;-72
2022/08/08 02:06:37;;;;;;;11.02;7.47;;;12.70;99.90;;;;;;4988208;28;20525;-72
2022/08/08 02:09:17;;;;;;;7.88;7.07;;;12.70;99.90;;;;;;4990125;28;20790;-72
2022/08/08 02:11:45;;;;;;;11.52;7.70;;;12.70;99.90;;;;;;5039122;28;20080;-72
2022/08/08 02:14:27;;;;;;;12.63;7.72;;;12.80;99.90;;;;;;5036502;28;20049;-72
2022/08/08 02:17:14;;;;;;;11.02;7.15;;;12.80;99.90;;;;;;5031037;28;20492;-72
2022/08/08 02:19:54;;;;;;;10.18;7.13;;;12.70;99.90;;;;;;5054650;28;20049;-72
2022/08/08 02:22:30;;;;;;;10.23;6.80;;;12.90;99.90;;;;;;5035742;28;20032;-73
2022/08/08 02:25:17;;;;;;;10.48;7.07;;;12.80;99.90;;;;;;5034863;28;20064;-72
2022/08/08 02:27:53;;;;;;;9.35;6.75;;;12.80;99.90;;;;;;5026378;28;20554;-71
2022/08/08 02:30:32;;;;;;;11.50;6.72;;;12.80;99.90;;;;;;5050355;28;20112;-72
2022/08/08 02:33:04;;;;;;;10.02;6.70;;;12.80;99.90;;;;;;5049483;28;20072;-72
2022/08/08 02:36:01;;;;;;;11.63;6.70;;;12.80;99.90;;;;;;5050091;28;20057;-72
2022/08/08 02:38:53;;;;;;;10.98;6.85;;;12.90;99.90;;;;;;5034413;28;20048;-72
2022/08/08 02:41:50;;;;;;;14.05;7.40;;;12.90;99.90;;;;;;5031993;28;20042;-72
2022/08/08 02:44:38;;;;;;;9.82;6.95;;;12.90;99.90;;;;;;5045147;28;20049;-72
2022/08/08 02:47:22;;;;;;;12.00;7.40;;;13.00;99.90;;;;;;5023903;28;20404;-72
2022/08/08 02:50:35;;;;;;;11.35;8.15;;;12.90;99.90;;;;;;5048632;28;20045;-72
2022/08/08 02:53:11;;;;;;;10.63;7.00;;;12.90;99.90;;;;;;5031225;28;20503;-72
2022/08/08 02:56:00;;;;;;;11.73;7.78;;;12.90;99.90;;;;;;5043190;28;20150;-72
2022/08/08 02:58:49;;;;;;;9.25;7.28;;;12.90;99.90;;;;;;5031722;28;20079;-72
2022/08/08 03:01:40;;;;;;;11.15;7.03;;;12.90;99.90;;;;;;5050293;28;20515;-72
2022/08/08 03:04:30;;;;;;;8.50;6.72;;;12.80;99.90;;;;;;5035339;28;20095;-72
2022/08/08 03:07:23;;;;;;;8.53;6.70;;;12.80;99.90;;;;;;5021062;28;20053;-72
2022/08/08 03:10:10;;;;;;;9.45;6.70;;;12.80;99.90;;;;;;5036677;28;20054;-72
2022/08/08 03:13:07;;;;;;;13.05;7.75;;;12.80;99.90;;;;;;5029033;28;20054;-72
2022/08/08 03:15:54;;;;;;;12.55;7.72;;;12.70;99.90;;;;;;5040761;28;20053;-72
2022/08/08 03:18:48;;;;;;;11.85;6.85;;;12.60;99.90;;;;;;5013130;28;20044;-72
2022/08/08 03:21:14;;;;;;;9.82;6.68;;;12.60;99.90;;;;;;5038443;28;20415;-72
2022/08/08 03:23:40;;;;;;;9.52;7.63;;;12.60;99.90;;;;;;5031087;28;20050;-73
2022/08/08 03:26:06;;;;;;;9.40;7.40;;;12.60;99.90;;;;;;5029649;28;20052;-73
2022/08/08 03:28:48;;;;;;;8.00;7.20;;;12.70;99.90;;;;;;5028992;28;20049;-73
2022/08/08 03:34:04;;;;;;;8.48;7.18;;;12.60;99.90;;;;;;5028703;28;20075;-72
2022/08/08 03:36:30;;;;;;;10.90;7.40;;;12.60;99.90;;;;;;5017005;28;20041;-72
2022/08/08 03:38:56;;;;;;;10.15;7.65;;;12.60;99.90;;;;;;5027863;28;20049;-72
2022/08/08 03:41:31;;;;;;;8.25;6.93;;;12.60;99.90;;;;;;5028182;28;20049;-72
2022/08/08 03:43:57;;;;;;;12.35;7.75;;;12.60;99.90;;;;;;5040970;28;20053;-72
2022/08/08 03:46:23;;;;;;;10.80;7.15;;;12.60;99.90;;;;;;5036680;28;20056;-73
2022/08/08 03:49:01;;;;;;;11.48;7.70;;;12.60;99.90;;;;;;5045456;28;20043;-72
2022/08/08 03:51:28;;;;;;;12.80;7.70;;;12.60;99.90;;;;;;5049718;28;20130;-73
2022/08/08 03:53:54;;;;;;;8.57;7.10;;;12.60;99.90;;;;;;5048305;28;20045;-72
2022/08/08 03:56:21;;;;;;;13.27;7.50;;;12.70;99.90;;;;;;5024575;28;20587;-72
2022/08/08 03:58:48;;;;;;;15.20;7.35;;;12.60;99.90;;;;;;5038653;28;20061;-72
2022/08/08 04:01:14;;;;;;;8.45;6.63;;;12.60;99.90;;;;;;5047935;28;20037;-72
2022/08/08 04:03:47;;;;;;;11.55;7.70;;;12.60;99.90;;;;;;5034820;28;20107;-73
2022/08/08 04:06:13;;;;;;;9.93;7.60;;;12.50;99.90;;;;;;5033600;28;20048;-72
2022/08/08 04:08:40;;;;;;;9.32;7.45;;;12.50;99.90;;;;;;5023814;28;20053;-72
2022/08/08 04:11:06;;;;;;;10.82;7.40;;;12.50;99.90;;;;;;5032834;28;20045;-72
2022/08/08 04:13:32;;;;;;;11.82;7.85;;;12.60;99.90;;;;;;5037186;28;20505;-72
2022/08/08 04:15:58;;;;;;;11.23;8.13;;;12.50;99.90;;;;;;5042553;28;20072;-71
2022/08/08 04:18:24;;;;;;;16.70;7.45;;;12.50;99.90;;;;;;5015375;28;20045;-71
2022/08/08 04:20:49;;;;;;;9.00;7.55;;;12.50;99.90;;;;;;5032745;28;20132;-72
2022/08/08 04:23:17;;;;;;;11.50;7.63;;;12.60;99.90;;;;;;5032996;28;20050;-72
2022/08/08 04:25:43;;;;;;;10.38;7.53;;;12.60;99.90;;;;;;5039131;28;20042;-72
2022/08/08 04:28:09;;;;;;;12.55;7.60;;;12.70;99.90;;;;;;5029131;28;20055;-72
2022/08/08 04:30:35;;;;;;;9.65;7.63;;;12.70;99.90;;;;;;5032593;28;20124;-72
2022/08/08 04:33:01;;;;;;;9.93;7.07;;;12.60;99.90;;;;;;5043101;28;20084;-72
2022/08/08 04:35:27;;;;;;;10.20;6.95;;;12.70;99.90;;;;;;5051950;28;20526;-71
2022/08/08 04:37:53;;;;;;;9.57;6.95;;;12.80;99.90;;;;;;5037026;28;20049;-71
2022/08/08 04:40:19;;;;;;;14.55;8.23;;;12.90;99.90;;;;;;5051799;28;20484;-72
2022/08/08 04:42:46;;;;;;;12.60;7.63;;;12.80;99.90;;;;;;5038219;28;20037;-72
2022/08/08 04:45:12;;;;;;;7.50;6.68;;;12.90;99.90;;;;;;5052048;28;20048;-72
2022/08/08 04:47:38;;;;;;;11.38;7.32;;;12.80;99.90;;;;;;5035677;28;20056;-72
2022/08/08 04:50:04;;;;;;;9.15;7.05;;;13.00;99.90;;;;;;5052258;28;20037;-72
2022/08/08 04:52:30;;;;;;;8.85;6.70;;;13.00;99.90;;;;;;5050378;28;20079;-71
2022/08/08 04:54:56;;;;;;;12.63;7.65;;;13.00;99.90;;;;;;5051909;28;20088;-72
2022/08/08 04:57:21;;;;;;;7.95;6.70;;;12.90;99.90;;;;;;5035813;28;20560;-71
2022/08/08 04:59:47;;;;;;;10.30;6.88;;;13.10;99.90;;;;;;5067436;28;20049;-72
2022/08/08 05:02:13;;;;;;;10.55;7.05;;;13.10;99.90;;;;;;5049551;28;20404;-71
2022/08/08 05:04:38;;;;;;;13.52;7.00;;;13.20;99.90;;;;;;5032135;28;20052;-72
2022/08/08 05:07:04;;;;;;;8.85;6.50;;;13.20;99.90;;;;;;5016980;28;20053;-71
2022/08/08 05:09:30;;;;;;;13.02;6.82;;;13.30;99.90;;;;;;5050035;28;20059;-72
2022/08/08 05:11:56;;;;;;;10.95;6.65;;;13.30;99.90;;;;;;5048019;28;20135;-72
2022/08/08 05:14:22;;;;;;;10.05;7.63;;;13.40;99.90;;;;;;5030470;28;20049;-71
2022/08/08 05:16:47;;;;;;;12.95;7.05;;;13.50;99.90;;;;;;5025881;28;20523;-73
2022/08/08 05:19:13;;;;;;;10.15;6.63;;;13.40;99.90;;;;;;5036114;28;20049;-72
2022/08/08 05:21:40;;;;;;;8.85;7.22;;;13.50;99.90;;;;;;5045592;28;20383;-72
2022/08/08 05:24:07;;;;;;;8.10;6.65;;;13.50;99.90;;;;;;5040332;28;20047;-72
2022/08/08 05:26:34;;;;;;;11.55;6.72;;;13.60;99.90;;;;;;5025216;28;20404;-73
2022/08/08 05:29:02;;;;;;;11.13;6.70;;;13.60;99.90;;;;;;5045621;28;20447;-73
2022/08/08 05:31:29;;;;;;;13.38;6.68;;;13.70;99.90;;;;;;5033171;28;20561;-73
2022/08/08 05:33:55;;;;;;;11.00;6.72;;;13.80;99.90;;;;;;5049149;28;20124;-73
2022/08/08 05:36:24;;;;;;;10.95;7.22;;;13.80;99.90;;;;;;5038519;28;20045;-73
2022/08/08 05:38:51;;;;;;;11.32;6.80;;;13.80;99.90;;;;;;5047190;28;20059;-72
2022/08/08 05:41:22;;;;;;;9.48;6.55;;;13.90;99.90;;;;;;5050443;28;20555;-73
2022/08/08 05:43:48;;;;;;;9.05;6.13;;;13.90;99.90;;;;;;5039244;28;20077;-73
2022/08/08 05:46:15;;;;;;;11.73;7.10;;;13.90;99.90;;;;;;5046535;28;20072;-73
2022/08/08 05:48:42;;;;;;;12.15;6.75;;;13.90;99.90;;;;;;5039139;28;20060;-73
2022/08/08 05:51:08;;;;;;;10.45;6.70;;;14.10;99.90;;;;;;5050596;28;20652;-72
2022/08/08 05:53:33;;;;;;;11.05;6.82;;;13.90;99.90;;;;;;5050522;28;20064;-73
2022/08/08 05:56:00;;;;;;;11.57;6.97;;;14.00;99.90;;;;;;5050232;28;20052;-72
2022/08/08 05:58:33;;;;;;;18.70;7.45;;;14.10;99.90;;;;;;5034639;28;20045;-73
2022/08/08 06:01:02;;;;;;;25.20;8.27;;;14.10;99.90;;;;;;5051140;28;20128;-72
2022/08/08 06:03:29;;;;;;;13.93;7.20;;;14.10;99.90;;;;;;5038190;28;20073;-73
2022/08/08 06:06:06;;;;;;;11.95;7.00;;;14.20;99.90;;;;;;5042996;28;20103;-73
2022/08/08 06:08:51;;;;;;;12.40;6.93;;;14.30;99.90;;;;;;5017134;28;20525;-73
2022/08/08 06:11:18;;;;;;;8.55;6.63;;;14.40;99.90;;;;;;5032916;28;20041;-72
2022/08/08 06:13:46;;;;;;;10.20;7.10;;;14.40;99.90;;;;;;5033852;28;20087;-73
2022/08/08 06:16:12;;;;;;;13.57;7.00;;;14.50;99.90;;;;;;5040811;28;20052;-73
2022/08/08 06:18:40;;;;;;;11.30;6.85;;;14.50;99.90;;;;;;5029237;28;20128;-73
2022/08/08 06:21:07;;;;;;;16.38;7.70;;;14.60;99.90;;;;;;5041877;28;20119;-73
2022/08/08 06:23:33;;;;;;;13.68;7.20;;;14.50;99.90;;;;;;5043938;28;20045;-72
2022/08/08 06:26:05;;;;;;;14.98;6.95;;;14.60;99.90;;;;;;5029710;28;20060;-73
2022/08/08 06:28:31;;;;;;;11.00;7.07;;;14.70;99.90;;;;;;5043870;28;20045;-74
2022/08/08 06:31:03;;;;;;;12.70;7.20;;;14.80;99.90;;;;;;5030899;28;20051;-73
2022/08/08 06:33:57;;;;;;;11.70;7.07;;;14.90;99.90;;;;;;5035444;28;20110;-73
2022/08/08 06:36:29;;;;;;;11.27;5.95;;;14.90;99.90;;;;;;5049870;28;20523;-73
2022/08/08 06:38:56;;;;;;;12.02;6.32;;;14.90;99.90;;;;;;5050689;28;20064;-72
2022/08/08 06:41:25;;;;;;;10.73;6.30;;;15.00;99.90;;;;;;5016682;28;20092;-72
2022/08/08 06:43:57;;;;;;;11.73;6.35;;;15.00;99.90;;;;;;5037916;28;20064;-72
2022/08/08 06:46:23;;;;;;;8.38;6.00;;;15.00;99.90;;;;;;5046355;28;20415;-72
2022/08/08 06:48:48;;;;;;;11.98;6.68;;;15.10;99.90;;;;;;5050383;28;20065;-73
2022/08/08 06:51:14;;;;;;;11.45;6.40;;;15.00;99.90;;;;;;5050620;28;20074;-73
2022/08/08 06:53:41;;;;;;;12.88;7.10;;;15.00;99.90;;;;;;5035766;28;20049;-73
2022/08/08 06:56:07;;;;;;;9.48;6.75;;;15.10;99.90;;;;;;5029641;28;20510;-73
2022/08/08 06:58:33;;;;;;;10.57;6.60;;;15.30;99.90;;;;;;5040319;28;20084;-75
2022/08/08 07:01:01;;;;;;;12.52;6.30;;;15.40;99.90;;;;;;5049249;28;20126;-73
2022/08/08 07:03:41;;;;;;;11.07;6.10;;;15.70;99.90;;;;;;5038609;28;20041;-73
2022/08/08 07:06:09;;;;;;;8.75;6.03;;;15.80;99.90;;;;;;5036177;28;20053;-73
2022/08/08 07:08:45;;;;;;;12.55;6.05;;;16.10;99.90;;;;;;5048377;28;20084;-73
2022/08/08 07:11:16;;;;;;;6.47;4.60;;;16.40;99.90;;;;;;5032353;28;20056;-73
2022/08/08 07:13:43;;;;;;;10.77;4.45;;;16.90;99.90;;;;;;5032732;28;20056;-77
2022/08/08 07:16:15;;;;;;;5.45;3.35;;;17.20;99.90;;;;;;5044962;28;20504;-74
2022/08/08 07:19:10;;;;;;;9.15;3.55;;;17.50;99.90;;;;;;5028525;28;20061;-74
2022/08/08 07:22:06;;;;;;;9.77;3.33;;;17.80;99.90;;;;;;5040671;28;20053;-73
2022/08/08 07:24:33;;;;;;;7.45;3.80;;;18.00;99.90;;;;;;5032733;28;20583;-74
2022/08/08 07:27:01;;;;;;;10.45;3.20;;;18.20;99.90;;;;;;5036350;28;20067;-74
2022/08/08 07:29:28;;;;;;;7.28;3.45;;;18.30;99.90;;;;;;5047002;28;20106;-77
2022/08/08 07:31:55;;;;;;;7.75;2.28;;;18.40;99.90;;;;;;5048076;28;20081;-73
2022/08/08 07:34:22;;;;;;;6.78;1.90;;;18.40;99.90;;;;;;5035632;28;20053;-74
2022/08/08 07:36:49;;;;;;;3.45;1.02;;;18.60;99.90;;;;;;5030759;28;20577;-76
2022/08/08 07:39:20;;;;;;;2.42;0.80;;;18.60;99.90;;;;;;5030687;28;20038;-74
2022/08/08 07:41:46;;;;;;;2.60;0.73;;;18.70;99.90;;;;;;5048756;28;20045;-74
2022/08/08 07:44:15;;;;;;;2.78;0.95;;;18.70;99.90;;;;;;5037565;28;20045;-76
2022/08/08 07:46:41;;;;;;;4.63;1.08;;;19.10;99.90;;;;;;5053175;28;20061;-74
2022/08/08 07:49:07;;;;;;;2.55;1.08;;;19.20;99.90;;;;;;5040430;28;20048;-74
2022/08/08 07:51:34;;;;;;;3.95;1.25;;;19.40;99.90;;;;;;5033895;28;20120;-74
2022/08/08 07:54:27;;;;;;;2.88;1.25;;;19.20;99.90;;;;;;5033553;28;20049;-74
2022/08/08 07:57:05;;;;;;;6.20;1.52;;;19.30;99.90;;;;;;5033710;28;20527;-73
2022/08/08 07:59:40;;;;;;;3.42;1.10;;;19.40;99.90;;;;;;5033096;28;20057;-73
2022/08/08 08:02:07;;;;;;;2.58;1.02;;;19.50;99.90;;;;;;5032170;28;20055;-73
2022/08/08 08:04:37;;;;;;;2.95;1.20;;;19.40;99.90;;;;;;5045427;28;20048;-75
2022/08/08 08:07:03;;;;;;;3.80;1.45;;;19.50;99.90;;;;;;5051620;28;20106;-73
2022/08/08 08:09:36;;;;;;;4.72;1.40;;;19.70;99.90;;;;;;5061292;28;20084;-76
2022/08/08 08:12:02;;;;;;;6.85;1.15;;;19.60;99.90;;;;;;5042282;28;20404;-73
2022/08/08 08:14:39;;;;;;;4.13;1.30;;;19.30;99.90;;;;;;5053973;28;20510;-73
2022/08/08 08:17:08;;;;;;;4.60;1.10;;;19.40;99.90;;;;;;5042219;28;20057;-75
2022/08/08 08:19:35;;;;;;;3.60;1.02;;;19.60;99.90;;;;;;5053362;28;20049;-73
2022/08/08 08:22:02;;;;;;;5.40;1.13;;;19.60;99.90;;;;;;5047275;28;20504;-74
2022/08/08 08:24:27;;;;;;;2.30;0.93;;;19.50;99.90;;;;;;5035683;28;20124;-73
2022/08/08 08:26:53;;;;;;;2.20;0.75;;;19.70;99.90;;;;;;5038759;28;20133;-72
2022/08/08 08:29:19;;;;;;;5.38;1.02;;;19.80;99.90;;;;;;5040853;28;20045;-73
2022/08/08 08:31:44;;;;;;;4.28;1.13;;;19.70;99.90;;;;;;5044111;28;20037;-73
2022/08/08 08:34:11;;;;;;;3.00;1.10;;;19.80;99.90;;;;;;5041762;28;20041;-74
2022/08/08 08:36:37;;;;;;;3.22;0.93;;;19.70;99.90;;;;;;5041649;28;20067;-76
2022/08/08 08:39:03;;;;;;;1.70;0.88;;;19.70;99.90;;;;;;5040842;28;20045;-75
2022/08/08 08:41:29;;;;;;;3.78;0.68;;;19.80;99.90;;;;;;5037467;28;20048;-73
2022/08/08 08:43:57;;;;;;;3.80;1.08;;;19.80;99.90;;;;;;5042320;28;20099;-74
2022/08/08 08:46:24;;;;;;;2.45;0.80;;;19.90;99.90;;;;;;5042166;28;20103;-73
2022/08/08 08:48:51;;;;;;;4.18;0.88;;;20.00;99.90;;;;;;5040155;28;20405;-74
2022/08/08 08:51:17;;;;;;;3.97;1.08;;;20.00;99.90;;;;;;5040078;28;20064;-73
2022/08/08 08:53:52;;;;;;;3.05;0.80;;;20.10;99.90;;;;;;5033698;28;20045;-74
2022/08/08 08:56:24;;;;;;;3.92;0.68;;;20.10;99.90;;;;;;5039759;28;20081;-74
2022/08/08 08:58:50;;;;;;;3.28;0.80;;;20.10;99.90;;;;;;5054679;28;20041;-73
2022/08/08 09:01:19;;;;;;;3.15;0.77;;;19.90;99.90;;;;;;5039186;28;20048;-73
2022/08/08 09:03:46;;;;;;;2.40;0.80;;;20.10;99.90;;;;;;5041094;28;20041;-73
2022/08/08 09:06:26;;;;;;;1.92;0.70;;;20.20;99.90;;;;;;5037219;28;20045;-73
2022/08/08 09:09:08;;;;;;;4.97;0.90;;;20.20;99.90;;;;;;5030699;28;20045;-75
2022/08/08 09:11:34;;;;;;;3.90;0.70;;;20.40;99.90;;;;;;5050346;28;20087;-73
2022/08/08 09:14:01;;;;;;;3.75;0.85;;;20.40;99.90;;;;;;5034329;28;20059;-73
2022/08/08 09:16:28;;;;;;;2.45;0.77;;;20.30;99.90;;;;;;5041505;28;20048;-73
2022/08/08 09:18:55;;;;;;;2.95;0.55;;;20.30;99.90;;;;;;5038212;28;20053;-73
2022/08/08 09:21:21;;;;;;;4.05;0.90;;;20.40;99.90;;;;;;5039136;28;20064;-73
2022/08/08 09:23:47;;;;;;;2.78;0.93;;;20.50;99.90;;;;;;5039083;28;20484;-74
2022/08/08 09:26:33;;;;;;;5.60;0.77;;;20.50;99.90;;;;;;5034095;28;20045;-74
2022/08/08 09:29:01;;;;;;;2.97;1.00;;;20.50;99.90;;;;;;5037836;28;20076;-72
2022/08/08 09:32:02;;;;;;;2.22;0.80;;;20.50;99.90;;;;;;5032770;28;20052;-76
2022/08/08 09:34:32;;;;;;;5.05;0.80;;;20.60;99.90;;;;;;5042939;28;20053;-74
2022/08/08 09:37:09;;;;;;;3.40;0.52;;;20.50;99.90;;;;;;5028562;28;20036;-73
2022/08/08 09:39:47;;;;;;;2.63;0.65;;;20.60;99.90;;;;;;5036091;28;20033;-73
2022/08/08 09:42:21;;;;;;;2.75;0.77;;;20.60;99.90;;;;;;5035269;28;20512;-73
2022/08/08 09:45:16;;;;;;;2.05;0.50;;;20.70;99.90;;;;;;5038467;28;20041;-73
2022/08/08 09:47:43;;;;;;;2.10;0.50;;;20.60;99.90;;;;;;5022608;28;20111;-73
2022/08/08 09:50:11;;;;;;;6.20;0.90;;;20.60;99.90;;;;;;5037701;28;20061;-72
2022/08/08 09:52:40;;;;;;;3.10;0.77;;;20.60;99.90;;;;;;5037521;28;20500;-73
2022/08/08 09:55:06;;;;;;;3.30;0.80;;;20.60;99.90;;;;;;5036408;28;20045;-73
2022/08/08 09:57:38;;;;;;;3.58;0.80;;;20.80;99.90;;;;;;5022323;28;20049;-73
2022/08/08 10:00:11;;;;;;;3.38;0.73;;;20.60;99.90;;;;;;5038971;28;20081;-74
2022/08/08 10:02:40;;;;;;;2.92;0.65;;;20.40;99.90;;;;;;5022617;28;20041;-73
2022/08/08 10:05:15;;;;;;;2.45;0.70;;;20.70;99.90;;;;;;5040209;28;20044;-73
2022/08/08 10:07:50;;;;;;;3.20;0.88;;;20.80;99.90;;;;;;5019617;28;20116;-73
2022/08/08 10:10:24;;;;;;;1.88;0.70;;;20.70;99.90;;;;;;5038651;28;20049;-74
2022/08/08 10:12:50;;;;;;;3.03;0.70;;;20.80;99.90;;;;;;5038274;28;20045;-72
2022/08/08 10:15:16;;;;;;;5.68;0.75;;;20.80;99.90;;;;;;5043343;28;21002;-72
2022/08/08 10:17:50;;;;;;;5.60;0.90;;;20.80;99.90;;;;;;5022886;28;20033;-71
2022/08/08 10:20:16;;;;;;;5.47;0.77;;;20.70;99.90;;;;;;5036487;28;20118;-73
2022/08/08 10:23:00;;;;;;;2.75;0.77;;;20.80;99.90;;;;;;5035319;28;20045;-73
2022/08/08 10:25:27;;;;;;;3.75;0.70;;;20.80;99.90;;;;;;5034421;28;20045;-72
2022/08/08 10:27:54;;;;;;;3.38;0.80;;;20.80;99.90;;;;;;5022196;28;20072;-74
2022/08/08 10:30:24;;;;;;;1.48;0.55;;;20.90;99.90;;;;;;5036539;28;20056;-73
2022/08/08 10:32:55;;;;;;;3.00;0.85;;;20.80;99.90;;;;;;5037329;28;20055;-75
2022/08/08 10:35:26;;;;;;;1.60;0.70;;;20.80;99.90;;;;;;5037836;28;20060;-75
2022/08/08 10:37:56;;;;;;;;;;;20.90;99.90;;;;;;5019161;28;20049;-72
2022/08/08 10:40:25;;;;;;;3.50;0.52;;;20.90;99.90;;;;;;5038374;28;19921;-73
2022/08/08 10:42:59;;;;;;;3.92;0.60;;;20.90;99.90;;;;;;5035055;28;20116;-72
2022/08/08 10:45:26;;;;;;;2.30;0.45;;;21.00;99.90;;;;;;5054118;28;20777;-73
2022/08/08 10:47:54;;;;;;;3.15;0.90;;;21.00;99.90;;;;;;5018211;28;20128;-73
2022/08/08 10:50:19;;;;;;;3.33;0.80;;;21.00;99.90;;;;;;5038273;28;20131;-72
2022/08/08 10:52:45;;;;;;;3.90;0.70;;;21.00;99.90;;;;;;5034481;28;20140;-73
2022/08/08 10:55:17;;;;;;;1.42;0.50;;;21.00;99.90;;;;;;5038239;28;20098;-75
2022/08/08 10:57:47;;;;;;;2.20;0.63;;;21.00;99.90;;;;;;5018658;28;20115;-73
2022/08/08 11:00:23;;;;;;;1.90;0.40;;;21.10;99.90;;;;;;5040126;28;20037;-74
2022/08/08 11:02:50;;;;;;;2.20;0.50;;;21.00;99.90;;;;;;5033735;28;20055;-73
2022/08/08 11:05:17;;;;;;;2.20;0.70;;;21.10;99.90;;;;;;5039175;28;20049;-74
2022/08/08 11:07:51;;;;;;;3.33;0.90;;;21.00;99.90;;;;;;5029997;28;20119;-76
2022/08/08 11:10:23;;;;;;;3.65;0.85;;;21.10;99.90;;;;;;5048284;28;20045;-73
2022/08/08 11:12:51;;;;;;;2.83;0.70;;;21.20;99.90;;;;;;5036248;28;20069;-74
2022/08/08 11:15:22;;;;;;;2.17;0.63;;;21.20;99.90;;;;;;5039851;28;20041;-72
2022/08/08 11:17:49;;;;;;;;;;;21.40;99.90;;;;;;5017848;28;20041;-73
2022/08/08 11:20:17;;;;;;;3.92;0.60;;;21.40;99.90;;;;;;5037393;28;20007;-72
2022/08/08 11:22:46;;;;;;;3.13;0.85;;;21.40;99.90;;;;;;5041239;28;20077;-73
2022/08/08 11:25:13;;;;;;;3.22;0.70;;;21.50;99.90;;;;;;5047432;28;20127;-74
2022/08/08 11:27:41;;;;;;;4.38;0.75;;;21.50;99.90;;;;;;5020376;28;20114;-73
2022/08/08 11:30:09;;;;;;;6.97;0.82;;;21.60;99.90;;;;;;5034753;28;20501;-73
2022/08/08 11:32:40;;;;;;;2.75;0.65;;;21.50;99.90;;;;;;5032698;28;20099;-74
2022/08/08 11:35:12;;;;;;;2.15;0.60;;;21.70;99.90;;;;;;5033027;28;20524;-74
2022/08/08 11:37:41;;;;;;;2.45;0.60;;;21.70;99.90;;;;;;5022165;28;20120;-73
2022/08/08 11:40:10;;;;;;;4.75;0.52;;;21.50;99.90;;;;;;5048391;28;20527;-73
2022/08/08 11:42:37;;;;;;;3.65;0.65;;;21.40;99.90;;;;;;5032702;28;20386;-72
2022/08/08 11:45:05;;;;;;;2.50;0.73;;;21.30;99.90;;;;;;5038277;28;20053;-76
2022/08/08 11:47:32;;;;;;;3.17;0.60;;;21.30;99.90;;;;;;5022374;28;20609;-74
2022/08/08 11:50:08;;;;;;;3.50;0.60;;;21.30;99.90;;;;;;5040232;28;20122;-73
2022/08/08 11:52:35;;;;;;;2.72;0.80;;;21.30;99.90;;;;;;5040312;28;20056;-74
2022/08/08 11:55:17;;;;;;;4.85;0.77;;;21.30;99.90;;;;;;5031523;28;20084;-75
2022/08/08 11:57:43;;;;;;;3.20;0.60;;;21.30;99.90;;;;;;5025804;28;20037;-72
2022/08/08 12:00:16;;;;;;;4.97;0.70;;;21.20;99.90;;;;;;5033486;28;20128;-73
2022/08/08 12:02:53;;;;;;;2.83;0.70;;;21.30;99.90;;;;;;5046696;28;20048;-72
2022/08/08 12:05:30;;;;;;;4.15;0.50;;;21.20;99.90;;;;;;5052567;28;20045;-72
2022/08/08 12:07:55;;;;;;;1.05;0.40;;;21.30;99.90;;;;;;5015287;28;20041;-72
2022/08/08 12:10:24;;;;;;;3.47;0.70;;;21.40;99.90;;;;;;5041782;28;20064;-72
2022/08/08 12:13:00;;;;;;;1.40;0.40;;;21.40;99.90;;;;;;5036248;28;20041;-71
2022/08/08 12:15:30;;;;;;;1.75;0.60;;;21.40;99.90;;;;;;5059399;28;20052;-70
2022/08/08 12:17:56;;;;;;;2.78;0.70;;;21.40;99.90;;;;;;5023293;28;20144;-71
2022/08/08 12:20:22;;;;;;;1.55;0.65;;;21.40;99.90;;;;;;5037781;28;20116;-71
2022/08/08 12:22:50;;;;;;;2.65;0.60;;;21.30;99.90;;;;;;5037454;28;20045;-71
2022/08/08 12:25:26;;;;;;;2.03;0.55;;;21.40;99.90;;;;;;5037712;28;20045;-71
2022/08/08 12:28:05;;;;;;;5.10;0.70;;;21.40;99.90;;;;;;5025127;28;20497;-71
2022/08/08 12:30:32;;;;;;;2.55;0.70;;;21.40;99.90;;;;;;5038748;28;20104;-71
2022/08/08 12:33:01;;;;;;;3.05;1.13;;;21.40;99.90;;;;;;5036152;28;20408;-70
2022/08/08 12:35:37;;;;;;;4.85;0.70;;;21.30;99.90;;;;;;5032132;28;20042;-72
2022/08/08 12:38:06;;;;;;;1.77;0.82;;;21.20;99.90;;;;;;5023289;28;20107;-74
2022/08/08 12:40:42;;;;;;;2.55;0.70;;;21.20;99.90;;;;;;5038982;28;20083;-70
2022/08/08 12:43:09;;;;;;;1.75;0.60;;;21.20;99.90;;;;;;5038071;28;20133;-70
2022/08/08 12:45:38;;;;;;;1.65;0.68;;;21.20;99.90;;;;;;5039868;28;20041;-71
2022/08/08 12:48:17;;;;;;;5.88;0.77;;;21.20;99.90;;;;;;5022493;28;20535;-70
2022/08/08 12:50:53;;;;;;;3.17;0.70;;;21.20;99.90;;;;;;5039268;28;20045;-71
2022/08/08 12:53:22;;;;;;;6.38;0.93;;;21.30;99.90;;;;;;5037827;28;20537;-71
2022/08/08 12:56:08;;;;;;;3.20;0.70;;;21.30;99.90;;;;;;5039704;28;20072;-71
2022/08/08 12:58:44;;;;;;;2.00;0.82;;;21.40;99.90;;;;;;5031680;28;20038;-70
2022/08/08 13:01:11;;;;;;;3.20;0.60;;;21.30;99.90;;;;;;5042639;28;20623;-70
2022/08/08 13:03:44;;;;;;;2.25;0.60;;;21.30;99.90;;;;;;5038274;28;20047;-70
2022/08/08 13:06:16;;;;;;;3.05;0.50;;;21.20;99.90;;;;;;5031855;28;20051;-70
2022/08/08 13:08:51;;;;;;;2.58;0.73;;;21.20;99.90;;;;;;5036553;28;20052;-71
2022/08/08 13:11:26;;;;;;;6.18;0.90;;;21.50;99.90;;;;;;5039453;28;20681;-70
2022/08/08 13:14:10;;;;;;;2.35;0.98;;;21.60;99.90;;;;;;5037987;28;20041;-70
2022/08/08 13:16:36;;;;;;;1.90;0.95;;;21.80;99.90;;;;;;5028612;28;20914;-73
2022/08/08 13:19:03;;;;;;;2.33;0.55;;;21.70;99.90;;;;;;5045702;28;20049;-72